createdAt,value
2023-04-07T00:00:58.522Z,243.13
2023-04-07T00:01:58.584Z,240.95
2023-04-07T00:02:58.610Z,234.41
2023-04-07T00:03:59.022Z,235.27
2023-04-07T00:04:58.690Z,237.37
2023-04-07T00:05:58.628Z,237.90
2023-04-07T00:06:58.636Z,238.89
2023-04-07T00:07:58.655Z,236.18
2023-04-07T00:08:58.693Z,236.56
2023-04-07T00:09:58.719Z,234.81
2023-04-07T00:10:58.699Z,235.27
2023-04-07T00:11:58.739Z,234.34
2023-04-07T00:12:58.778Z,235.56
2023-04-07T00:13:58.784Z,236.90
2023-04-07T00:14:58.799Z,236.19
2023-04-07T00:15:58.871Z,236.39
2023-04-07T00:16:58.813Z,238.89
2023-04-07T00:17:58.907Z,237.93
2023-04-07T00:18:58.858Z,241.52
2023-04-07T00:19:58.885Z,238.01
2023-04-07T00:20:58.891Z,234.64
2023-04-07T00:21:58.923Z,235.56
2023-04-07T00:22:58.931Z,235.56
2023-04-07T00:23:58.961Z,234.43
2023-04-07T00:24:58.985Z,231.25
2023-04-07T00:25:58.997Z,226.23
2023-04-07T00:26:59.009Z,230.58
2023-04-07T00:27:59.035Z,229.70
2023-04-07T00:28:59.098Z,229.65
2023-04-07T00:29:59.103Z,232.56
2023-04-07T00:30:59.130Z,233.86
2023-04-07T00:31:59.116Z,234.31
2023-04-07T00:32:59.221Z,233.10
2023-04-07T00:33:59.152Z,233.43
2023-04-07T00:34:59.188Z,235.24
2023-04-07T00:35:59.199Z,239.41
2023-04-07T00:36:59.218Z,235.85
2023-04-07T00:37:59.171Z,230.87
2023-04-07T00:38:59.155Z,231.58
2023-04-07T00:39:59.206Z,234.87
2023-04-07T00:40:59.199Z,234.40
2023-04-07T00:41:59.175Z,233.88
2023-04-07T00:42:59.171Z,234.33
2023-04-07T00:43:59.162Z,234.85
2023-04-07T00:44:59.138Z,236.50
2023-04-07T00:45:59.175Z,233.79
2023-04-07T00:46:59.110Z,235.19
2023-04-07T00:47:59.175Z,237.39
2023-04-07T00:48:59.072Z,234.24
2023-04-07T00:49:59.119Z,232.21
2023-04-07T00:50:59.060Z,232.43
2023-04-07T00:51:59.008Z,233.53
2023-04-07T00:52:59.005Z,232.69
2023-04-07T00:53:58.979Z,233.46
2023-04-07T00:54:58.972Z,235.28
2023-04-07T00:55:58.949Z,236.80
2023-04-07T00:56:58.941Z,237.12
2023-04-07T00:57:58.937Z,237.57
2023-04-07T00:58:58.902Z,238.11
2023-04-07T00:59:58.910Z,237.80
2023-04-07T01:00:58.893Z,236.45
2023-04-07T01:01:58.985Z,234.73
2023-04-07T01:02:59.020Z,233.51
2023-04-07T01:03:59.143Z,235.18
2023-04-07T01:04:58.841Z,235.25
2023-04-07T01:05:58.820Z,233.42
2023-04-07T01:06:58.799Z,234.96
2023-04-07T01:07:58.771Z,234.66
2023-04-07T01:08:58.777Z,231.89
2023-04-07T01:09:58.748Z,236.03
2023-04-07T01:10:58.728Z,233.20
2023-04-07T01:11:58.721Z,234.54
2023-04-07T01:12:58.700Z,233.31
2023-04-07T01:13:58.692Z,234.43
2023-04-07T01:14:58.682Z,233.61
2023-04-07T01:15:58.696Z,232.15
2023-04-07T01:16:58.648Z,233.22
2023-04-07T01:17:58.657Z,234.39
2023-04-07T01:18:58.624Z,235.82
2023-04-07T01:19:58.605Z,236.13
2023-04-07T01:20:58.607Z,235.63
2023-04-07T01:21:58.596Z,233.34
2023-04-07T01:22:58.603Z,234.62
2023-04-07T01:23:58.579Z,232.57
2023-04-07T01:24:58.615Z,234.32
2023-04-07T01:25:58.548Z,234.53
2023-04-07T01:26:58.577Z,236.46
2023-04-07T01:27:58.518Z,237.24
2023-04-07T01:28:58.528Z,236.67
2023-04-07T01:29:58.500Z,235.81
2023-04-07T01:30:58.513Z,237.38
2023-04-07T01:31:58.606Z,236.23
2023-04-07T01:32:58.506Z,235.09
2023-04-07T01:33:58.463Z,233.78
2023-04-07T01:34:58.460Z,236.16
2023-04-07T01:35:58.454Z,235.81
2023-04-07T01:36:58.456Z,236.82
2023-04-07T01:37:58.434Z,236.91
2023-04-07T01:38:58.413Z,237.48
2023-04-07T01:39:58.409Z,237.41
2023-04-07T01:40:58.428Z,236.42
2023-04-07T01:41:58.405Z,239.63
2023-04-07T01:42:58.400Z,240.78
2023-04-07T01:43:58.419Z,240.79
2023-04-07T01:44:58.401Z,239.95
2023-04-07T01:45:58.389Z,240.80
2023-04-07T01:46:58.408Z,240.28
2023-04-07T01:47:58.400Z,241.38
2023-04-07T01:48:58.355Z,238.75
2023-04-07T01:49:58.350Z,239.47
2023-04-07T01:50:58.349Z,239.08
2023-04-07T01:51:58.334Z,236.08
2023-04-07T01:52:58.316Z,238.42
2023-04-07T01:53:58.301Z,240.60
2023-04-07T01:54:58.284Z,237.64
2023-04-07T01:55:58.284Z,239.65
2023-04-07T01:56:58.274Z,238.68
2023-04-07T01:57:58.256Z,240.25
2023-04-07T01:58:58.255Z,240.55
2023-04-07T01:59:58.307Z,238.20
2023-04-07T02:00:58.270Z,241.07
2023-04-07T02:01:58.300Z,241.28
2023-04-07T02:02:58.412Z,240.94
2023-04-07T02:03:58.538Z,241.72
2023-04-07T02:04:58.185Z,242.02
2023-04-07T02:05:58.190Z,241.51
2023-04-07T02:06:58.269Z,242.24
2023-04-07T02:07:58.227Z,241.29
2023-04-07T02:08:58.205Z,242.14
2023-04-07T02:09:58.227Z,244.51
2023-04-07T02:10:58.261Z,245.07
2023-04-07T02:11:58.263Z,244.23
2023-04-07T02:12:58.286Z,242.87
2023-04-07T02:13:58.311Z,241.79
2023-04-07T02:14:58.330Z,242.17
2023-04-07T02:15:58.388Z,244.64
2023-04-07T02:16:58.378Z,246.48
2023-04-07T02:17:58.462Z,241.20
2023-04-07T02:18:58.411Z,243.15
2023-04-07T02:19:58.452Z,244.61
2023-04-07T02:20:58.465Z,244.09
2023-04-07T02:21:58.500Z,245.70
2023-04-07T02:22:58.488Z,244.20
2023-04-07T02:23:58.495Z,245.43
2023-04-07T02:24:58.536Z,245.07
2023-04-07T02:25:58.555Z,246.28
2023-04-07T02:26:58.570Z,242.89
2023-04-07T02:27:58.590Z,245.03
2023-04-07T02:28:58.598Z,245.24
2023-04-07T02:29:58.621Z,246.57
2023-04-07T02:30:58.657Z,244.71
2023-04-07T02:31:58.713Z,246.35
2023-04-07T02:32:58.696Z,245.83
2023-04-07T02:33:58.707Z,244.46
2023-04-07T02:34:58.738Z,243.21
2023-04-07T02:35:58.773Z,243.17
2023-04-07T02:36:58.797Z,245.39
2023-04-07T02:37:58.809Z,246.35
2023-04-07T02:38:58.809Z,245.24
2023-04-07T02:39:58.819Z,244.77
2023-04-07T02:40:58.869Z,244.39
2023-04-07T02:41:58.871Z,245.50
2023-04-07T02:42:58.895Z,244.82
2023-04-07T02:43:58.914Z,243.67
2023-04-07T02:44:58.953Z,243.25
2023-04-07T02:45:59.027Z,240.35
2023-04-07T02:46:59.014Z,242.96
2023-04-07T02:47:59.032Z,245.05
2023-04-07T02:48:59.053Z,245.26
2023-04-07T02:49:59.079Z,245.35
2023-04-07T02:50:59.119Z,246.08
2023-04-07T02:51:59.130Z,248.86
2023-04-07T02:52:59.132Z,242.63
2023-04-07T02:53:59.154Z,244.07
2023-04-07T02:54:59.172Z,245.78
2023-04-07T02:55:59.268Z,247.05
2023-04-07T02:56:59.228Z,244.21
2023-04-07T02:57:59.240Z,245.88
2023-04-07T02:58:59.260Z,242.20
2023-04-07T02:59:59.323Z,241.20
2023-04-07T03:00:59.336Z,238.06
2023-04-07T03:01:59.548Z,239.76
2023-04-07T03:02:59.559Z,241.08
2023-04-07T03:03:59.492Z,240.54
2023-04-07T03:04:59.386Z,240.15
2023-04-07T03:05:59.420Z,238.77
2023-04-07T03:06:59.454Z,237.41
2023-04-07T03:07:59.465Z,239.51
2023-04-07T03:08:59.493Z,238.55
2023-04-07T03:09:59.521Z,236.92
2023-04-07T03:10:59.572Z,237.37
2023-04-07T03:11:59.571Z,232.74
2023-04-07T03:12:59.598Z,235.19
2023-04-07T03:13:59.616Z,235.67
2023-04-07T03:14:59.663Z,233.61
2023-04-07T03:15:59.674Z,234.98
2023-04-07T03:16:59.722Z,234.10
2023-04-07T03:17:59.788Z,234.71
2023-04-07T03:18:59.787Z,232.79
2023-04-07T03:19:59.789Z,231.90
2023-04-07T03:20:59.831Z,232.40
2023-04-07T03:21:59.867Z,232.98
2023-04-07T03:22:59.885Z,234.44
2023-04-07T03:23:59.919Z,231.14
2023-04-07T03:24:59.954Z,234.35
2023-04-07T03:25:59.987Z,232.41
2023-04-07T03:26:59.973Z,234.47
2023-04-07T03:28:00.000Z,234.47
2023-04-07T03:29:00.029Z,233.54
2023-04-07T03:30:00.114Z,232.75
2023-04-07T03:31:00.193Z,234.78
2023-04-07T03:32:00.119Z,235.35
2023-04-07T03:33:00.200Z,236.79
2023-04-07T03:34:00.155Z,238.76
2023-04-07T03:35:00.223Z,238.48
2023-04-07T03:36:00.279Z,237.37
2023-04-07T03:37:00.272Z,237.89
2023-04-07T03:38:00.286Z,238.74
2023-04-07T03:39:00.309Z,239.56
2023-04-07T03:40:00.353Z,239.82
2023-04-07T03:41:00.383Z,239.80
2023-04-07T03:42:00.425Z,241.17
2023-04-07T03:43:00.460Z,238.59
2023-04-07T03:44:00.478Z,238.34
2023-04-07T03:45:00.493Z,240.36
2023-04-07T03:46:00.584Z,240.24
2023-04-07T03:47:00.597Z,239.69
2023-04-07T03:48:00.617Z,240.90
2023-04-07T03:49:00.601Z,244.15
2023-04-07T03:50:00.641Z,240.62
2023-04-07T03:51:00.648Z,244.62
2023-04-07T03:52:00.697Z,245.30
2023-04-07T03:53:00.713Z,243.98
2023-04-07T03:54:00.731Z,244.04
2023-04-07T03:55:00.704Z,244.32
2023-04-07T03:56:00.673Z,245.12
2023-04-07T03:57:00.687Z,246.05
2023-04-07T03:58:00.650Z,245.43
2023-04-07T03:59:00.648Z,246.35
2023-04-07T04:00:00.644Z,247.89
2023-04-07T04:01:00.626Z,250.21
2023-04-07T04:02:00.697Z,246.81
2023-04-07T04:03:00.696Z,246.33
2023-04-07T04:04:00.756Z,250.00
2023-04-07T04:05:00.610Z,249.83
2023-04-07T04:06:00.599Z,249.54
2023-04-07T04:07:00.575Z,250.00
2023-04-07T04:08:00.573Z,249.07
2023-04-07T04:09:00.568Z,250.16
2023-04-07T04:10:00.529Z,249.84
2023-04-07T04:11:00.550Z,247.04
2023-04-07T04:12:00.520Z,247.06
2023-04-07T04:13:00.517Z,245.01
2023-04-07T04:14:00.501Z,247.33
2023-04-07T04:15:00.498Z,249.22
2023-04-07T04:16:00.538Z,247.59
2023-04-07T04:17:00.500Z,250.00
2023-04-07T04:18:00.515Z,246.74
2023-04-07T04:19:00.454Z,247.01
2023-04-07T04:20:00.445Z,245.40
2023-04-07T04:21:00.452Z,247.18
2023-04-07T04:22:00.500Z,249.97
2023-04-07T04:23:00.513Z,247.57
2023-04-07T04:24:00.552Z,245.02
2023-04-07T04:25:00.577Z,247.43
2023-04-07T04:26:00.619Z,248.04
2023-04-07T04:27:00.658Z,248.49
2023-04-07T04:28:00.704Z,246.63
2023-04-07T04:29:00.725Z,246.53
2023-04-07T04:30:00.753Z,248.81
2023-04-07T04:31:00.785Z,247.07
2023-04-07T04:32:00.779Z,247.89
2023-04-07T04:33:00.818Z,248.46
2023-04-07T04:34:00.849Z,248.81
2023-04-07T04:35:00.856Z,247.99
2023-04-07T04:36:00.921Z,248.95
2023-04-07T04:37:00.921Z,248.30
2023-04-07T04:38:00.923Z,248.32
2023-04-07T04:39:00.911Z,247.08
2023-04-07T04:40:00.893Z,248.33
2023-04-07T04:41:00.917Z,246.65
2023-04-07T04:42:00.900Z,248.09
2023-04-07T04:43:00.863Z,245.47
2023-04-07T04:44:00.850Z,246.80
2023-04-07T04:45:00.830Z,248.41
2023-04-07T04:46:00.806Z,246.04
2023-04-07T04:47:00.839Z,248.02
2023-04-07T04:48:00.845Z,247.19
2023-04-07T04:49:00.768Z,247.72
2023-04-07T04:50:00.773Z,246.80
2023-04-07T04:51:00.769Z,249.10
2023-04-07T04:52:00.742Z,246.31
2023-04-07T04:53:00.743Z,246.39
2023-04-07T04:54:00.776Z,245.71
2023-04-07T04:55:00.802Z,244.87
2023-04-07T04:56:00.819Z,246.81
2023-04-07T04:57:00.902Z,248.06
2023-04-07T04:58:00.890Z,244.67
2023-04-07T04:59:00.914Z,246.69
2023-04-07T05:00:00.953Z,245.74
2023-04-07T05:01:00.998Z,246.96
2023-04-07T05:02:01.077Z,245.41
2023-04-07T05:03:01.243Z,247.11
2023-04-07T05:04:01.154Z,245.82
2023-04-07T05:05:01.224Z,244.44
2023-04-07T05:06:01.130Z,247.38
2023-04-07T05:07:01.171Z,245.31
2023-04-07T05:08:01.172Z,247.28
2023-04-07T05:09:01.206Z,244.21
2023-04-07T05:10:01.231Z,246.24
2023-04-07T05:11:01.276Z,247.16
2023-04-07T05:12:01.276Z,244.57
2023-04-07T05:13:01.325Z,243.52
2023-04-07T05:14:01.361Z,244.31
2023-04-07T05:15:01.383Z,244.81
2023-04-07T05:16:01.450Z,243.26
2023-04-07T05:17:01.420Z,244.60
2023-04-07T05:18:01.515Z,246.14
2023-04-07T05:19:01.459Z,241.18
2023-04-07T05:20:01.527Z,241.79
2023-04-07T05:21:01.536Z,241.97
2023-04-07T05:22:01.562Z,239.40
2023-04-07T05:23:01.585Z,239.88
2023-04-07T05:24:01.620Z,238.68
2023-04-07T05:25:01.668Z,240.14
2023-04-07T05:26:01.687Z,237.21
2023-04-07T05:27:01.708Z,239.86
2023-04-07T05:28:01.769Z,241.15
2023-04-07T05:29:01.753Z,238.35
2023-04-07T05:30:01.818Z,237.72
2023-04-07T05:31:01.825Z,239.43
2023-04-07T05:32:01.992Z,236.55
2023-04-07T05:33:01.918Z,237.63
2023-04-07T05:34:01.932Z,238.39
2023-04-07T05:35:01.940Z,239.32
2023-04-07T05:36:01.981Z,240.52
2023-04-07T05:37:02.001Z,239.08
2023-04-07T05:38:02.029Z,240.79
2023-04-07T05:39:02.048Z,243.00
2023-04-07T05:40:02.091Z,242.55
2023-04-07T05:41:02.117Z,242.25
2023-04-07T05:42:02.175Z,241.33
2023-04-07T05:43:02.157Z,246.28
2023-04-07T05:44:02.190Z,246.28
2023-04-07T05:45:02.241Z,248.22
2023-04-07T05:46:02.297Z,248.73
2023-04-07T05:47:02.285Z,247.29
2023-04-07T05:48:02.383Z,248.15
2023-04-07T05:49:18.413Z,249.35
2023-04-07T05:50:03.327Z,249.29
2023-04-07T05:51:02.348Z,249.68
2023-04-07T05:52:02.310Z,249.50
2023-04-07T05:53:02.325Z,249.75
2023-04-07T05:54:02.276Z,250.83
2023-04-07T05:55:02.289Z,246.53
2023-04-07T05:56:02.265Z,248.14
2023-04-07T05:57:02.315Z,246.12
2023-04-07T05:58:02.306Z,249.58
2023-04-07T05:59:02.281Z,249.67
2023-04-07T06:00:02.242Z,247.50
2023-04-07T06:01:02.243Z,247.00
2023-04-07T06:02:02.341Z,246.46
2023-04-07T06:03:02.321Z,248.11
2023-04-07T06:04:02.255Z,248.30
2023-04-07T06:05:02.268Z,246.31
2023-04-07T06:06:02.198Z,245.94
2023-04-07T06:07:02.258Z,243.97
2023-04-07T06:08:02.279Z,245.36
2023-04-07T06:09:02.337Z,242.67
2023-04-07T06:10:02.356Z,246.38
2023-04-07T06:11:02.394Z,243.04
2023-04-07T06:12:02.415Z,243.59
2023-04-07T06:13:02.450Z,242.30
2023-04-07T06:14:02.464Z,244.02
2023-04-07T06:15:02.501Z,245.78
2023-04-07T06:16:02.531Z,246.23
2023-04-07T06:17:02.828Z,242.14
2023-04-07T06:18:02.589Z,242.34
2023-04-07T06:19:02.630Z,244.11
2023-04-07T06:20:02.673Z,243.36
2023-04-07T06:21:02.675Z,244.89
2023-04-07T06:22:02.690Z,244.29
2023-04-07T06:23:02.823Z,245.50
2023-04-07T06:24:02.783Z,243.58
2023-04-07T06:25:02.744Z,245.51
2023-04-07T06:26:02.838Z,243.83
2023-04-07T06:27:02.814Z,245.46
2023-04-07T06:28:02.848Z,244.80
2023-04-07T06:29:02.822Z,245.41
2023-04-07T06:30:02.842Z,245.55
2023-04-07T06:31:02.841Z,246.75
2023-04-07T06:32:02.841Z,244.01
2023-04-07T06:33:02.829Z,246.48
2023-04-07T06:34:02.793Z,244.82
2023-04-07T06:35:02.786Z,248.64
2023-04-07T06:36:02.800Z,244.65
2023-04-07T06:37:02.883Z,246.93
2023-04-07T06:38:02.824Z,245.47
2023-04-07T06:39:02.909Z,243.99
2023-04-07T06:40:02.824Z,248.71
2023-04-07T06:41:02.811Z,244.90
2023-04-07T06:42:02.801Z,247.36
2023-04-07T06:43:02.824Z,242.67
2023-04-07T06:44:02.848Z,243.96
2023-04-07T06:45:02.806Z,246.36
2023-04-07T06:46:02.908Z,246.82
2023-04-07T06:47:02.788Z,243.97
2023-04-07T06:48:02.916Z,246.34
2023-04-07T06:49:02.845Z,243.94
2023-04-07T06:50:02.903Z,244.10
2023-04-07T06:51:02.923Z,244.09
2023-04-07T06:52:02.951Z,242.19
2023-04-07T06:53:03.012Z,241.47
2023-04-07T06:54:03.029Z,242.17
2023-04-07T06:55:03.048Z,240.44
2023-04-07T06:56:03.060Z,240.76
2023-04-07T06:57:03.133Z,243.03
2023-04-07T06:58:03.171Z,241.62
2023-04-07T06:59:03.170Z,237.89
2023-04-07T07:00:03.212Z,238.36
2023-04-07T07:01:03.269Z,240.35
2023-04-07T07:02:03.431Z,238.96
2023-04-07T07:03:03.542Z,238.41
2023-04-07T07:04:03.370Z,236.21
2023-04-07T07:05:03.339Z,238.13
2023-04-07T07:06:03.353Z,236.67
2023-04-07T07:07:03.434Z,235.18
2023-04-07T07:08:03.403Z,236.49
2023-04-07T07:09:03.538Z,235.67
2023-04-07T07:10:03.488Z,235.91
2023-04-07T07:11:03.468Z,239.04
2023-04-07T07:12:04.168Z,236.43
2023-04-07T07:13:03.535Z,229.08
2023-04-07T07:14:03.610Z,228.77
2023-04-07T07:15:03.729Z,228.63
2023-04-07T07:16:03.666Z,226.02
2023-04-07T07:17:03.639Z,226.83
2023-04-07T07:18:03.738Z,225.18
2023-04-07T07:19:03.698Z,224.92
2023-04-07T07:20:03.755Z,223.56
2023-04-07T07:21:03.744Z,220.70
2023-04-07T07:22:03.757Z,216.34
2023-04-07T07:23:03.978Z,215.20
2023-04-07T07:24:04.064Z,214.19
2023-04-07T07:25:03.946Z,210.51
2023-04-07T07:26:03.937Z,209.81
2023-04-07T07:27:03.904Z,207.76
2023-04-07T07:28:04.028Z,204.62
2023-04-07T07:29:04.269Z,202.03
2023-04-07T07:30:03.973Z,198.08
2023-04-07T07:31:04.015Z,195.05
2023-04-07T07:32:03.980Z,196.46
2023-04-07T07:33:04.045Z,193.37
2023-04-07T07:34:04.205Z,191.28
2023-04-07T07:35:04.056Z,189.07
2023-04-07T07:36:04.287Z,184.57
2023-04-07T07:37:04.085Z,182.95
2023-04-07T07:38:04.099Z,180.80
2023-04-07T07:39:04.671Z,175.89
2023-04-07T07:40:04.431Z,178.66
2023-04-07T07:41:04.665Z,173.93
2023-04-07T07:42:04.296Z,170.58
2023-04-07T07:43:05.175Z,171.07
2023-04-07T07:44:04.688Z,167.08
2023-04-07T07:45:04.398Z,165.71
2023-04-07T07:46:04.426Z,162.97
2023-04-07T07:47:04.330Z,157.47
2023-04-07T07:48:04.360Z,156.04
2023-04-07T07:49:04.717Z,152.97
2023-04-07T07:50:04.400Z,147.98
2023-04-07T07:51:04.413Z,147.28
2023-04-07T07:52:05.171Z,147.38
2023-04-07T07:53:04.735Z,142.58
2023-04-07T07:54:04.712Z,142.02
2023-04-07T07:55:04.425Z,136.05
2023-04-07T07:56:04.446Z,133.02
2023-04-07T07:57:04.497Z,125.10
2023-04-07T07:58:04.485Z,124.95
2023-04-07T07:59:04.515Z,127.03
2023-04-07T08:00:04.536Z,127.64
2023-04-07T08:01:04.595Z,123.97
2023-04-07T08:02:04.604Z,122.84
2023-04-07T08:03:04.616Z,120.91
2023-04-07T08:04:04.665Z,114.43
2023-04-07T08:05:04.640Z,110.95
2023-04-07T08:06:04.642Z,111.57
2023-04-07T08:07:04.616Z,111.15
2023-04-07T08:08:04.670Z,109.25
2023-04-07T08:09:04.698Z,107.63
2023-04-07T08:10:04.657Z,101.88
2023-04-07T08:11:04.680Z,89.45
2023-04-07T08:12:04.702Z,94.89
2023-04-07T08:13:04.717Z,95.11
2023-04-07T08:14:05.201Z,97.44
2023-04-07T08:15:04.749Z,94.91
2023-04-07T08:16:04.856Z,85.18
2023-04-07T08:17:04.751Z,84.27
2023-04-07T08:18:04.855Z,86.49
2023-04-07T08:19:04.777Z,80.70
2023-04-07T08:20:04.794Z,79.31
2023-04-07T08:21:04.809Z,74.98
2023-04-07T08:22:04.829Z,73.09
2023-04-07T08:23:04.798Z,76.92
2023-04-07T08:24:04.830Z,69.11
2023-04-07T08:25:04.846Z,54.98
2023-04-07T08:26:04.852Z,47.75
2023-04-07T08:27:04.879Z,42.50
2023-04-07T08:28:04.886Z,28.20
2023-04-07T08:29:04.902Z,21.03
2023-04-07T08:30:04.879Z,24.77
2023-04-07T08:31:04.935Z,25.91
2023-04-07T08:32:04.931Z,25.99
2023-04-07T08:33:05.004Z,25.83
2023-04-07T08:34:04.901Z,25.00
2023-04-07T08:35:04.918Z,25.00
2023-04-07T08:36:04.985Z,29.38
2023-04-07T08:37:04.905Z,25.18
2023-04-07T08:38:04.930Z,29.47
2023-04-07T08:39:05.198Z,28.15
2023-04-07T08:40:04.913Z,29.09
2023-04-07T08:41:04.962Z,25.04
2023-04-07T08:42:04.953Z,27.13
2023-04-07T08:43:04.963Z,28.19
2023-04-07T08:44:04.941Z,28.68
2023-04-07T08:45:04.988Z,24.16
2023-04-07T08:46:04.938Z,31.67
2023-04-07T08:47:04.992Z,36.45
2023-04-07T08:48:05.002Z,41.80
2023-04-07T08:49:04.978Z,41.38
2023-04-07T08:50:04.996Z,41.93
2023-04-07T08:51:05.010Z,44.68
2023-04-07T08:52:06.429Z,47.02
2023-04-07T08:53:07.244Z,49.33
2023-04-07T08:54:04.963Z,40.35
2023-04-07T08:55:04.933Z,42.69
2023-04-07T08:56:04.947Z,49.57
2023-04-07T08:57:05.035Z,45.78
2023-04-07T08:58:04.987Z,48.32
2023-04-07T08:59:04.955Z,49.25
2023-04-07T09:00:04.953Z,49.99
2023-04-07T09:01:05.687Z,52.94
2023-04-07T09:02:04.939Z,57.64
2023-04-07T09:03:04.930Z,66.43
2023-04-07T09:04:04.928Z,74.56
2023-04-07T09:05:04.811Z,83.33
2023-04-07T09:06:04.781Z,81.60
2023-04-07T09:07:04.804Z,87.24
2023-04-07T09:08:04.736Z,90.54
2023-04-07T09:09:04.729Z,92.65
2023-04-07T09:10:04.805Z,96.43
2023-04-07T09:11:04.827Z,100.84
2023-04-07T09:12:04.846Z,106.33
2023-04-07T09:13:04.872Z,111.92
2023-04-07T09:14:04.890Z,107.65
2023-04-07T09:15:04.943Z,112.04
2023-04-07T09:16:04.921Z,112.32
2023-04-07T09:17:04.891Z,111.30
2023-04-07T09:18:04.970Z,116.02
2023-04-07T09:19:04.918Z,121.62
2023-04-07T09:20:04.985Z,118.20
2023-04-07T09:21:04.957Z,122.80
2023-04-07T09:22:04.919Z,123.00
2023-04-07T09:23:04.903Z,124.13
2023-04-07T09:24:04.860Z,123.89
2023-04-07T09:25:04.830Z,124.08
2023-04-07T09:26:04.793Z,121.59
2023-04-07T09:27:04.761Z,130.16
2023-04-07T09:28:04.777Z,127.31
2023-04-07T09:29:04.714Z,129.31
2023-04-07T09:30:04.673Z,124.44
2023-04-07T09:31:04.742Z,120.85
2023-04-07T09:32:04.757Z,121.69
2023-04-07T09:33:04.803Z,122.44
2023-04-07T09:34:04.797Z,124.44
2023-04-07T09:35:04.814Z,116.41
2023-04-07T09:36:04.890Z,118.79
2023-04-07T09:37:04.944Z,113.68
2023-04-07T09:38:04.952Z,113.95
2023-04-07T09:39:05.016Z,109.05
2023-04-07T09:40:05.057Z,113.58
2023-04-07T09:41:05.110Z,117.56
2023-04-07T09:42:05.130Z,120.72
2023-04-07T09:43:05.177Z,126.02
2023-04-07T09:44:05.217Z,130.60
2023-04-07T09:45:05.270Z,131.96
2023-04-07T09:46:05.329Z,124.85
2023-04-07T09:47:05.345Z,127.43
2023-04-07T09:48:05.382Z,127.42
2023-04-07T09:49:05.413Z,124.89
2023-04-07T09:50:05.449Z,129.77
2023-04-07T09:51:05.498Z,130.99
2023-04-07T09:52:05.523Z,129.39
2023-04-07T09:53:05.559Z,125.92
2023-04-07T09:54:05.602Z,125.54
2023-04-07T09:55:05.697Z,122.04
2023-04-07T09:56:05.662Z,118.01
2023-04-07T09:57:05.701Z,105.43
2023-04-07T09:58:05.737Z,104.24
2023-04-07T09:59:05.801Z,106.32
2023-04-07T10:00:05.815Z,101.42
2023-04-07T10:01:05.875Z,106.22
2023-04-07T10:02:05.967Z,114.01
2023-04-07T10:03:06.097Z,110.89
2023-04-07T10:04:05.978Z,104.79
2023-04-07T10:05:05.949Z,101.64
2023-04-07T10:06:05.960Z,83.61
2023-04-07T10:07:05.990Z,88.56
2023-04-07T10:08:06.042Z,95.58
2023-04-07T10:09:06.035Z,98.87
2023-04-07T10:10:06.034Z,101.65
2023-04-07T10:11:06.099Z,102.30
2023-04-07T10:12:06.075Z,105.68
2023-04-07T10:13:06.115Z,105.80
2023-04-07T10:14:06.134Z,103.93
2023-04-07T10:15:06.174Z,105.13
2023-04-07T10:16:06.178Z,101.31
2023-04-07T10:17:06.212Z,105.93
2023-04-07T10:18:06.293Z,104.52
2023-04-07T10:19:06.216Z,104.55
2023-04-07T10:20:06.248Z,101.22
2023-04-07T10:21:06.250Z,101.23
2023-04-07T10:22:06.262Z,103.97
2023-04-07T10:23:06.296Z,93.40
2023-04-07T10:24:06.299Z,96.64
2023-04-07T10:25:06.299Z,98.92
2023-04-07T10:26:06.301Z,93.63
2023-04-07T10:27:06.323Z,92.26
2023-04-07T10:28:06.352Z,91.74
2023-04-07T10:29:06.340Z,89.32
2023-04-07T10:30:06.377Z,84.75
2023-04-07T10:31:07.257Z,90.71
2023-04-07T10:32:06.379Z,85.02
2023-04-07T10:33:06.419Z,86.73
2023-04-07T10:34:06.407Z,88.58
2023-04-07T10:35:06.477Z,86.31
2023-04-07T10:36:06.541Z,85.40
2023-04-07T10:37:06.452Z,88.65
2023-04-07T10:38:06.514Z,90.31
2023-04-07T10:39:06.486Z,92.18
2023-04-07T10:40:06.513Z,87.55
2023-04-07T10:41:06.493Z,83.66
2023-04-07T10:42:06.499Z,93.11
2023-04-07T10:43:06.528Z,94.30
2023-04-07T10:44:06.532Z,90.68
2023-04-07T10:45:06.564Z,94.48
2023-04-07T10:46:06.600Z,96.91
2023-04-07T10:47:06.566Z,98.63
2023-04-07T10:48:06.631Z,97.78
2023-04-07T10:49:06.607Z,95.90
2023-04-07T10:50:06.625Z,96.04
2023-04-07T10:51:06.647Z,95.59
2023-04-07T10:52:06.637Z,101.56
2023-04-07T10:53:06.660Z,99.94
2023-04-07T10:54:06.654Z,98.06
2023-04-07T10:55:06.686Z,98.07
2023-04-07T10:56:06.690Z,93.37
2023-04-07T10:57:06.725Z,94.65
2023-04-07T10:58:06.728Z,97.35
2023-04-07T10:59:06.731Z,93.86
2023-04-07T11:00:06.840Z,93.44
2023-04-07T11:01:06.798Z,102.25
2023-04-07T11:02:06.882Z,99.37
2023-04-07T11:03:07.059Z,100.46
2023-04-07T11:04:06.927Z,94.46
2023-04-07T11:05:06.843Z,100.41
2023-04-07T11:06:06.882Z,97.85
2023-04-07T11:07:06.877Z,98.87
2023-04-07T11:08:06.896Z,99.23
2023-04-07T11:09:06.917Z,94.09
2023-04-07T11:10:06.988Z,86.84
2023-04-07T11:11:06.958Z,93.07
2023-04-07T11:12:07.010Z,99.76
2023-04-07T11:13:07.020Z,103.09
2023-04-07T11:14:07.054Z,101.77
2023-04-07T11:15:07.074Z,102.20
2023-04-07T11:16:07.109Z,101.87
2023-04-07T11:17:07.087Z,101.79
2023-04-07T11:18:07.123Z,102.96
2023-04-07T11:19:07.253Z,97.21
2023-04-07T11:20:07.179Z,95.31
2023-04-07T11:21:07.245Z,91.62
2023-04-07T11:22:09.874Z,84.62
2023-04-07T11:23:08.201Z,84.63
2023-04-07T11:24:07.176Z,84.86
2023-04-07T11:25:07.132Z,85.00
2023-04-07T11:26:07.130Z,83.51
2023-04-07T11:27:07.102Z,79.67
2023-04-07T11:28:07.072Z,79.98
2023-04-07T11:29:07.040Z,79.46
2023-04-07T11:30:07.004Z,79.56
2023-04-07T11:31:07.032Z,79.16
2023-04-07T11:32:06.969Z,79.51
2023-04-07T11:33:06.983Z,80.49
2023-04-07T11:34:06.911Z,81.47
2023-04-07T11:35:06.878Z,83.96
2023-04-07T11:36:06.910Z,78.98
2023-04-07T11:37:06.842Z,77.28
2023-04-07T11:38:06.795Z,77.74
2023-04-07T11:39:06.782Z,78.47
2023-04-07T11:40:06.787Z,77.57
2023-04-07T11:41:06.853Z,75.80
2023-04-07T11:42:06.818Z,76.99
2023-04-07T11:43:06.865Z,74.42
2023-04-07T11:44:06.889Z,78.64
2023-04-07T11:45:08.289Z,77.25
2023-04-07T11:46:06.944Z,78.50
2023-04-07T11:47:07.071Z,64.90
2023-04-07T11:48:06.982Z,66.04
2023-04-07T11:49:07.003Z,62.67
2023-04-07T11:50:07.017Z,72.43
2023-04-07T11:51:07.042Z,76.45
2023-04-07T11:52:07.109Z,80.03
2023-04-07T11:53:07.053Z,80.04
2023-04-07T11:54:07.083Z,77.43
2023-04-07T11:55:07.115Z,83.49
2023-04-07T11:56:07.116Z,78.46
2023-04-07T11:57:07.148Z,77.78
2023-04-07T11:58:07.151Z,83.59
2023-04-07T11:59:07.188Z,85.40
2023-04-07T12:00:07.189Z,87.53
2023-04-07T12:01:07.209Z,87.58
2023-04-07T12:02:07.389Z,89.21
2023-04-07T12:03:07.448Z,78.56
2023-04-07T12:04:07.433Z,75.58
2023-04-07T12:05:07.417Z,76.75
2023-04-07T12:06:07.310Z,84.49
2023-04-07T12:07:07.309Z,81.07
2023-04-07T12:08:07.348Z,82.59
2023-04-07T12:09:07.385Z,82.72
2023-04-07T12:10:07.343Z,84.95
2023-04-07T12:11:07.353Z,85.67
2023-04-07T12:12:07.359Z,85.68
2023-04-07T12:13:07.380Z,86.96
2023-04-07T12:14:07.374Z,78.29
2023-04-07T12:15:07.433Z,82.71
2023-04-07T12:16:07.426Z,80.33
2023-04-07T12:17:07.388Z,85.01
2023-04-07T12:18:07.425Z,87.39
2023-04-07T12:19:07.406Z,88.00
2023-04-07T12:20:07.430Z,82.25
2023-04-07T12:21:07.441Z,80.90
2023-04-07T12:22:07.436Z,80.30
2023-04-07T12:23:07.436Z,83.90
2023-04-07T12:24:07.470Z,82.99
2023-04-07T12:25:07.493Z,80.27
2023-04-07T12:26:07.484Z,75.00
2023-04-07T12:27:07.502Z,76.11
2023-04-07T12:28:07.525Z,82.33
2023-04-07T12:29:08.355Z,83.64
2023-04-07T12:30:07.545Z,80.76
2023-04-07T12:31:07.558Z,80.23
2023-04-07T12:32:07.625Z,81.87
2023-04-07T12:33:07.627Z,80.69
2023-04-07T12:34:07.593Z,79.65
2023-04-07T12:35:07.618Z,80.88